Time;durP1;ratioP1;P1;durP2;ratioP2;P2;SDS_P1;SDS_P2;PMS_P1;PMS_P2;Temp;Humidity;BMP_temperature;BMP_pressure;BME280_temperature;BME280_humidity;BME280_pressure;Samples;Min_cycle;Max_cycle;Signal;HPM_P1;HPM_P2
2022/12/06 00:06:49;;;;;;;1999.90;999.90;;;2.10;99.90;;;;;;6725319;88;20249;-74
2022/12/06 00:16:50;;;;;;;1999.90;999.90;;;2.10;99.90;;;;;;6729332;88;20207;-75
2022/12/06 00:26:51;;;;;;;1999.90;999.90;;;2.20;99.90;;;;;;6722538;88;20335;-74
2022/12/06 00:36:51;;;;;;;1999.90;999.90;;;2.40;99.90;;;;;;6717944;88;20353;-75
2022/12/06 00:46:52;;;;;;;1999.90;999.90;;;2.10;99.90;;;;;;6722270;88;20366;-74
2022/12/06 00:56:53;;;;;;;1999.90;999.90;;;2.40;99.90;;;;;;6722885;88;20239;-75
2022/12/06 01:06:53;;;;;;;1999.90;999.90;;;2.40;99.90;;;;;;6724652;88;20684;-74
2022/12/06 01:16:54;;;;;;;1999.90;999.90;;;2.30;99.90;;;;;;6720633;88;20230;-74
2022/12/06 01:26:54;;;;;;;1999.90;999.90;;;2.40;99.90;;;;;;6719762;88;20198;-74
2022/12/06 01:36:55;;;;;;;1999.90;999.90;;;2.40;99.90;;;;;;6723656;88;20207;-74
2022/12/06 01:46:55;;;;;;;1999.90;999.90;;;2.40;99.90;;;;;;6720349;88;20201;-74
2022/12/06 01:56:57;;;;;;;1999.90;999.90;;;2.40;99.90;;;;;;6719724;88;20226;-75
2022/12/06 02:06:58;;;;;;;1999.90;999.90;;;2.40;99.90;;;;;;6717590;88;20280;-75
2022/12/06 02:17:24;;;;;;;1999.90;999.90;;;2.40;99.90;;;;;;6723185;88;20717;-74
2022/12/06 02:27:39;;;;;;;1999.90;999.90;;;2.50;99.90;;;;;;6720870;88;20234;-74
2022/12/06 02:37:52;;;;;;;1999.90;999.90;;;2.50;99.90;;;;;;6721437;88;20758;-74
2022/12/06 02:47:56;;;;;;;1999.90;999.90;;;2.60;99.90;;;;;;6719303;88;20209;-74
2022/12/06 02:57:57;;;;;;;1999.90;999.90;;;2.50;99.90;;;;;;6723611;88;20198;-74
2022/12/06 03:08:05;;;;;;;1999.90;999.90;;;2.50;99.90;;;;;;6722251;88;20212;-74
2022/12/06 03:18:21;;;;;;;1999.90;999.90;;;2.50;99.90;;;;;;6736030;77;20509;-76
2022/12/06 03:28:22;;;;;;;1999.90;999.90;;;2.50;99.90;;;;;;6732066;88;20198;-78
2022/12/06 03:38:44;;;;;;;1999.90;999.90;;;2.70;99.90;;;;;;6732211;88;20196;-77
2022/12/06 03:48:49;;;;;;;1999.90;999.90;;;2.70;99.90;;;;;;6747730;88;20623;-77
2022/12/06 03:58:50;;;;;;;1999.90;999.90;;;2.70;99.90;;;;;;6730164;88;20201;-76
2022/12/06 04:08:51;;;;;;;1999.90;999.90;;;2.60;99.90;;;;;;6725989;88;20241;-76
2022/12/06 04:18:51;;;;;;;1999.90;999.90;;;2.80;99.90;;;;;;6735859;88;20279;-77
2022/12/06 04:39:12;;;;;;;1999.90;999.90;;;2.80;99.90;;;;;;6729248;88;20249;-77
2022/12/06 04:49:12;;;;;;;1999.90;999.90;;;2.90;99.90;;;;;;6735726;88;21152;-77
2022/12/06 04:59:13;;;;;;;1999.90;999.90;;;2.90;99.90;;;;;;6728740;88;20202;-77
2022/12/06 05:09:14;;;;;;;1999.90;999.90;;;3.00;99.90;;;;;;6724867;88;20370;-76
2022/12/06 05:19:15;;;;;;;1999.90;999.90;;;3.00;99.90;;;;;;6733288;88;20294;-78
2022/12/06 05:29:15;;;;;;;1999.90;999.90;;;3.00;99.90;;;;;;6732811;88;20490;-75
2022/12/06 05:39:16;;;;;;;1999.90;999.90;;;3.00;99.90;;;;;;6735417;88;20293;-76
2022/12/06 05:49:16;;;;;;;1999.90;999.90;;;3.10;99.90;;;;;;6740356;88;20272;-76
2022/12/06 05:59:17;;;;;;;1999.90;999.90;;;3.10;99.90;;;;;;6736833;88;20177;-76
2022/12/06 06:09:17;;;;;;;1999.90;999.90;;;3.20;99.90;;;;;;6734538;88;20234;-76
2022/12/06 06:19:18;;;;;;;1999.90;999.90;;;3.10;99.90;;;;;;6731709;88;20196;-79
2022/12/06 06:29:18;;;;;;;1999.90;999.90;;;3.20;99.90;;;;;;6738471;88;20193;-77
2022/12/06 06:39:19;;;;;;;1999.90;999.90;;;3.20;99.90;;;;;;6728619;88;20519;-78
2022/12/06 06:49:20;;;;;;;1999.90;999.90;;;3.20;99.90;;;;;;6720538;88;20869;-77
2022/12/06 06:59:22;;;;;;;1999.90;999.90;;;3.30;99.90;;;;;;6725640;88;20220;-78
2022/12/06 07:09:22;;;;;;;1999.90;999.90;;;3.30;99.90;;;;;;6738000;88;20185;-80
2022/12/06 07:19:23;;;;;;;1999.90;999.90;;;3.40;99.90;;;;;;6730278;88;20757;-78
2022/12/06 07:29:23;;;;;;;1999.90;999.90;;;3.30;99.90;;;;;;6730318;88;20257;-77
2022/12/06 07:39:25;;;;;;;1999.90;999.90;;;3.50;99.90;;;;;;6725577;88;20220;-79
2022/12/06 07:49:26;;;;;;;1999.90;999.90;;;3.50;99.90;;;;;;6725427;88;20799;-78
2022/12/06 07:59:27;;;;;;;1999.90;999.90;;;3.50;99.90;;;;;;6726151;88;20193;-78
2022/12/06 08:09:27;;;;;;;1999.90;999.90;;;3.50;99.90;;;;;;6730425;88;20300;-78
2022/12/06 08:19:28;;;;;;;1999.90;999.90;;;3.50;99.90;;;;;;6724248;88;20323;-77
2022/12/06 08:29:29;;;;;;;1999.90;999.90;;;3.50;99.90;;;;;;6723418;88;20176;-77
2022/12/06 08:39:30;;;;;;;1999.90;999.90;;;3.60;99.90;;;;;;6725285;88;20762;-79
2022/12/06 08:49:30;;;;;;;1999.90;999.90;;;3.60;99.90;;;;;;6732152;88;20404;-78
2022/12/06 08:59:31;;;;;;;1999.90;999.90;;;3.60;99.90;;;;;;6727461;88;20262;-77
2022/12/06 09:09:31;;;;;;;1999.90;999.90;;;3.70;99.90;;;;;;6722827;88;20228;-79
2022/12/06 09:19:33;;;;;;;1999.90;999.90;;;3.80;99.90;;;;;;6720575;88;20632;-79
2022/12/06 09:29:34;;;;;;;1999.90;999.90;;;3.90;99.90;;;;;;6719574;88;20211;-79
2022/12/06 09:39:40;;;;;;;1999.90;999.90;;;3.90;99.90;;;;;;6719836;88;20201;-79
2022/12/06 09:50:14;;;;;;;1999.90;999.90;;;4.00;99.90;;;;;;6732659;88;20203;-78
2022/12/06 10:00:19;;;;;;;1999.90;999.90;;;4.10;99.90;;;;;;6732300;88;20777;-78
2022/12/06 10:10:35;;;;;;;1999.90;999.90;;;4.10;99.90;;;;;;6736617;88;20212;-79
2022/12/06 10:20:59;;;;;;;1999.90;999.90;;;4.20;99.90;;;;;;6736234;88;20262;-78
2022/12/06 10:31:12;;;;;;;1999.90;999.90;;;4.20;99.90;;;;;;6718522;88;20208;-78
2022/12/06 10:41:37;;;;;;;1999.90;999.90;;;4.20;99.90;;;;;;6718316;88;20216;-79
2022/12/06 10:51:45;;;;;;;1999.90;999.90;;;4.20;99.90;;;;;;6718851;88;20330;-79
2022/12/06 11:01:47;;;;;;;1999.90;999.90;;;4.50;99.90;;;;;;6719262;88;20253;-79
2022/12/06 11:11:49;;;;;;;1999.90;999.90;;;4.40;99.90;;;;;;6729493;88;20189;-81
2022/12/06 11:21:59;;;;;;;1999.90;999.90;;;4.60;99.90;;;;;;6743025;88;20192;-79
2022/12/06 11:32:06;;;;;;;1999.90;999.90;;;4.50;99.90;;;;;;6736065;88;20184;-79
2022/12/06 11:42:08;;;;;;;1999.90;999.90;;;4.60;99.90;;;;;;6719528;88;20214;-79
2022/12/06 11:52:18;;;;;;;1999.90;999.90;;;4.70;99.90;;;;;;6719074;88;20206;-79
2022/12/06 12:02:30;;;;;;;1999.90;999.90;;;4.70;99.90;;;;;;6718900;88;20641;-79
2022/12/06 12:23:24;;;;;;;1999.90;999.90;;;4.80;99.90;;;;;;6724401;88;20192;-78
2022/12/06 12:33:26;;;;;;;1999.90;999.90;;;4.90;99.90;;;;;;6730947;88;20208;-79
2022/12/06 12:43:32;;;;;;;1999.90;999.90;;;5.00;99.90;;;;;;6720975;88;21019;-79
2022/12/06 12:53:39;;;;;;;1999.90;999.90;;;5.10;99.90;;;;;;6721005;88;20751;-78
2022/12/06 13:03:41;;;;;;;1999.90;999.90;;;5.10;99.90;;;;;;6720495;88;20265;-78
2022/12/06 13:13:48;;;;;;;1999.90;999.90;;;5.00;99.90;;;;;;6719330;88;20236;-79
2022/12/06 13:23:52;;;;;;;1999.90;999.90;;;5.10;99.90;;;;;;6718795;88;20202;-79
2022/12/06 13:34:03;;;;;;;1999.90;999.90;;;5.00;99.90;;;;;;6719630;88;20308;-79
2022/12/06 13:44:24;;;;;;;1999.90;999.90;;;5.10;99.90;;;;;;6719853;88;20186;-79
2022/12/06 13:54:31;;;;;;;1999.90;999.90;;;5.00;99.90;;;;;;6728730;88;20216;-79
2022/12/06 14:04:33;;;;;;;1999.90;999.90;;;4.90;99.90;;;;;;6740051;88;20255;-79
2022/12/06 14:14:33;;;;;;;1999.90;999.90;;;5.00;99.90;;;;;;6720088;88;20639;-78
2022/12/06 14:24:40;;;;;;;1999.90;999.90;;;5.10;99.90;;;;;;6728853;88;20221;-79
2022/12/06 14:34:40;;;;;;;1999.90;999.90;;;5.20;99.90;;;;;;6725359;88;20560;-79
2022/12/06 14:44:47;;;;;;;1999.90;999.90;;;5.10;99.90;;;;;;6739001;88;20654;-78
2022/12/06 14:54:49;;;;;;;1999.90;999.90;;;5.00;99.90;;;;;;6721706;88;20231;-78
2022/12/06 15:04:49;;;;;;;1999.90;999.90;;;5.00;99.90;;;;;;6723819;88;20201;-78
2022/12/06 15:14:50;;;;;;;1999.90;999.90;;;5.00;99.90;;;;;;6744530;76;20293;-74
2022/12/06 15:24:54;;;;;;;1999.90;999.90;;;5.00;99.90;;;;;;6733387;88;20242;-75
2022/12/06 15:34:54;;;;;;;1999.90;999.90;;;4.90;99.90;;;;;;6732313;88;20682;-75
2022/12/06 15:44:55;;;;;;;1999.90;999.90;;;4.90;99.90;;;;;;6721708;88;20185;-75
2022/12/06 15:54:56;;;;;;;1999.90;999.90;;;4.90;99.90;;;;;;6726917;88;20462;-76
2022/12/06 16:04:56;;;;;;;1999.90;999.90;;;4.80;99.90;;;;;;6737498;88;20181;-77
2022/12/06 16:14:57;;;;;;;1999.90;999.90;;;4.60;99.90;;;;;;6720311;88;20649;-76
2022/12/06 16:24:57;;;;;;;1999.90;999.90;;;4.40;99.90;;;;;;6726959;88;20771;-77
2022/12/06 16:34:58;;;;;;;1999.90;999.90;;;4.30;99.90;;;;;;6730464;88;20740;-77
2022/12/06 16:44:58;;;;;;;1999.90;999.90;;;4.20;99.90;;;;;;6714282;88;20666;-77
2022/12/06 16:54:59;;;;;;;1999.90;999.90;;;4.20;99.90;;;;;;6715130;88;20213;-77
2022/12/06 17:05:04;;;;;;;1999.90;999.90;;;4.30;99.90;;;;;;6722965;88;20286;-77
2022/12/06 17:15:06;;;;;;;1999.90;999.90;;;4.40;99.90;;;;;;6719125;88;20186;-78
2022/12/06 17:25:08;;;;;;;1999.90;999.90;;;4.40;99.90;;;;;;6722015;88;20684;-75
2022/12/06 17:35:08;;;;;;;1999.90;999.90;;;4.40;99.90;;;;;;6726268;88;20194;-76
2022/12/06 17:45:10;;;;;;;1999.90;999.90;;;4.40;99.90;;;;;;6731839;88;20277;-76
2022/12/06 17:55:14;;;;;;;1999.90;999.90;;;4.40;99.90;;;;;;6724996;88;20698;-75
2022/12/06 18:05:14;;;;;;;1999.90;999.90;;;4.40;99.90;;;;;;6727016;88;21117;-76
2022/12/06 18:15:36;;;;;;;1999.90;999.90;;;4.40;99.90;;;;;;6726000;88;20190;-76
2022/12/06 18:25:39;;;;;;;1999.90;999.90;;;4.40;99.90;;;;;;6728097;88;20173;-75
2022/12/06 18:35:40;;;;;;;1999.90;999.90;;;4.30;99.90;;;;;;6728631;88;20218;-75
2022/12/06 18:45:40;;;;;;;1999.90;999.90;;;4.30;99.90;;;;;;6724653;88;20258;-77
2022/12/06 18:55:41;;;;;;;1999.90;999.90;;;4.30;99.90;;;;;;6717041;88;20223;-77
2022/12/06 19:05:42;;;;;;;1999.90;999.90;;;4.20;99.90;;;;;;6724836;88;20311;-75
2022/12/06 19:15:42;;;;;;;1999.90;999.90;;;4.30;99.90;;;;;;6735276;88;20333;-76
2022/12/06 19:25:43;;;;;;;1999.90;999.90;;;4.40;99.90;;;;;;6726037;88;20185;-76
2022/12/06 19:35:55;;;;;;;1999.90;999.90;;;4.30;99.90;;;;;;6723589;88;20223;-76
2022/12/06 19:45:55;;;;;;;1999.90;999.90;;;4.30;99.90;;;;;;6737806;88;20191;-76
2022/12/06 19:55:56;;;;;;;1999.90;999.90;;;4.40;99.90;;;;;;6747087;88;20196;-76
2022/12/06 20:06:02;;;;;;;1999.90;999.90;;;4.30;99.90;;;;;;6724847;88;20201;-75
2022/12/06 20:16:03;;;;;;;1999.90;999.90;;;4.30;99.90;;;;;;6721793;88;20193;-74
2022/12/06 20:26:04;;;;;;;1999.90;999.90;;;4.40;99.90;;;;;;6723011;88;20612;-77
2022/12/06 20:36:09;;;;;;;1999.90;999.90;;;4.50;99.90;;;;;;6727224;88;20207;-75
2022/12/06 20:46:24;;;;;;;1999.90;999.90;;;4.50;99.90;;;;;;6723867;88;20583;-74
2022/12/06 20:56:28;;;;;;;1999.90;999.90;;;4.50;99.90;;;;;;6726004;88;20180;-75
2022/12/06 21:06:28;;;;;;;1999.90;999.90;;;4.50;99.90;;;;;;6725318;88;20342;-74
2022/12/06 21:16:30;;;;;;;1999.90;999.90;;;4.40;99.90;;;;;;6733641;77;20185;-76
2022/12/06 21:26:31;;;;;;;1999.90;999.90;;;4.50;99.90;;;;;;6743036;88;20182;-76
2022/12/06 21:36:33;;;;;;;1999.90;999.90;;;4.50;99.90;;;;;;6724035;88;20709;-77
2022/12/06 21:46:33;;;;;;;1999.90;999.90;;;4.50;99.90;;;;;;6731318;88;20308;-78
2022/12/06 21:56:34;;;;;;;1999.90;999.90;;;4.60;99.90;;;;;;6748739;88;20195;-78
2022/12/06 22:06:35;;;;;;;1999.90;999.90;;;4.60;99.90;;;;;;6735498;88;20248;-79
2022/12/06 22:16:35;;;;;;;1999.90;999.90;;;4.60;99.90;;;;;;6744581;88;20669;-78
2022/12/06 22:26:36;;;;;;;1999.90;999.90;;;4.70;99.90;;;;;;6735297;88;20212;-77
2022/12/06 22:36:37;;;;;;;1999.90;999.90;;;4.80;99.90;;;;;;6738991;88;20181;-78
2022/12/06 22:46:37;;;;;;;1999.90;999.90;;;4.70;99.90;;;;;;6738705;88;20231;-77
2022/12/06 22:56:40;;;;;;;1999.90;999.90;;;4.70;99.90;;;;;;6740550;88;20199;-78
2022/12/06 23:06:40;;;;;;;1999.90;999.90;;;4.70;99.90;;;;;;6738238;88;20707;-77
2022/12/06 23:16:43;;;;;;;1999.90;999.90;;;4.70;99.90;;;;;;6724184;88;20371;-77
2022/12/06 23:26:47;;;;;;;1999.90;999.90;;;4.60;99.90;;;;;;6739742;88;20185;-78
2022/12/06 23:36:48;;;;;;;1999.90;999.90;;;4.50;99.90;;;;;;6730702;88;20695;-78
2022/12/06 23:46:49;;;;;;;1999.90;999.90;;;4.50;99.90;;;;;;6733696;88;20215;-79
2022/12/06 23:56:49;;;;;;;1999.90;999.90;;;4.50;99.90;;;;;;6728706;88;20192;-78
